sensor_id;sensor_type;location;lat;lon;timestamp;pressure;altitude;pressure_sealevel;temperature;humidity
36010;BME280;22076;52.182;5.404;2023-10-19T00:00:47;99549.88;;;18.36;100.00
36010;BME280;22076;52.182;5.404;2023-10-19T00:03:14;99541.00;;;18.29;100.00
36010;BME280;22076;52.182;5.404;2023-10-19T00:05:41;99534.22;;;18.26;100.00
36010;BME280;22076;52.182;5.404;2023-10-19T00:08:07;99533.91;;;18.21;100.00
36010;BME280;22076;52.182;5.404;2023-10-19T00:10:41;99535.03;;;18.35;100.00
36010;BME280;22076;52.182;5.404;2023-10-19T00:13:10;99528.13;;;18.17;100.00
36010;BME280;22076;52.182;5.404;2023-10-19T00:15:38;99532.75;;;18.24;100.00
36010;BME280;22076;52.182;5.404;2023-10-19T00:18:05;99520.84;;;18.11;100.00
36010;BME280;22076;52.182;5.404;2023-10-19T00:20:47;99512.63;;;18.14;100.00
36010;BME280;22076;52.182;5.404;2023-10-19T00:23:29;99514.06;;;18.25;100.00
36010;BME280;22076;52.182;5.404;2023-10-19T00:25:57;99523.31;;;18.38;100.00
36010;BME280;22076;52.182;5.404;2023-10-19T00:28:24;99518.13;;;18.53;100.00
36010;BME280;22076;52.182;5.404;2023-10-19T00:30:52;99522.25;;;18.55;100.00
36010;BME280;22076;52.182;5.404;2023-10-19T00:33:19;99514.84;;;18.42;100.00
36010;BME280;22076;52.182;5.404;2023-10-19T00:35:47;99512.53;;;18.47;100.00
36010;BME280;22076;52.182;5.404;2023-10-19T00:38:16;99512.69;;;18.46;100.00
36010;BME280;22076;52.182;5.404;2023-10-19T00:41:05;99509.69;;;18.49;100.00
36010;BME280;22076;52.182;5.404;2023-10-19T00:43:34;99516.28;;;18.61;100.00
36010;BME280;22076;52.182;5.404;2023-10-19T00:46:02;99513.19;;;18.41;100.00
36010;BME280;22076;52.182;5.404;2023-10-19T00:48:31;99513.56;;;18.78;100.00
36010;BME280;22076;52.182;5.404;2023-10-19T00:50:58;99505.16;;;18.66;100.00
36010;BME280;22076;52.182;5.404;2023-10-19T00:53:33;99504.53;;;18.64;100.00
36010;BME280;22076;52.182;5.404;2023-10-19T00:56:01;99499.56;;;18.61;100.00
36010;BME280;22076;52.182;5.404;2023-10-19T00:58:31;99492.75;;;18.75;100.00
36010;BME280;22076;52.182;5.404;2023-10-19T01:01:02;99485.91;;;18.89;100.00
36010;BME280;22076;52.182;5.404;2023-10-19T01:03:31;99495.44;;;18.66;100.00
36010;BME280;22076;52.182;5.404;2023-10-19T01:06:02;99495.13;;;18.61;100.00
36010;BME280;22076;52.182;5.404;2023-10-19T01:08:36;99496.22;;;18.75;100.00
36010;BME280;22076;52.182;5.404;2023-10-19T01:11:07;99492.88;;;18.90;100.00
36010;BME280;22076;52.182;5.404;2023-10-19T01:13:36;99484.63;;;18.76;100.00
36010;BME280;22076;52.182;5.404;2023-10-19T01:16:04;99484.41;;;18.94;100.00
36010;BME280;22076;52.182;5.404;2023-10-19T01:18:31;99487.88;;;18.87;100.00
36010;BME280;22076;52.182;5.404;2023-10-19T01:20:58;99485.88;;;18.97;100.00
36010;BME280;22076;52.182;5.404;2023-10-19T01:23:31;99483.84;;;19.07;100.00
36010;BME280;22076;52.182;5.404;2023-10-19T01:26:00;99475.53;;;18.79;100.00
36010;BME280;22076;52.182;5.404;2023-10-19T01:28:32;99487.16;;;19.09;100.00
36010;BME280;22076;52.182;5.404;2023-10-19T01:31:10;99483.59;;;18.94;100.00
36010;BME280;22076;52.182;5.404;2023-10-19T01:33:41;99469.66;;;19.00;100.00
36010;BME280;22076;52.182;5.404;2023-10-19T01:36:08;99469.81;;;18.98;100.00
36010;BME280;22076;52.182;5.404;2023-10-19T01:38:41;99470.09;;;19.12;100.00
36010;BME280;22076;52.182;5.404;2023-10-19T01:41:08;99472.72;;;19.12;100.00
36010;BME280;22076;52.182;5.404;2023-10-19T01:43:40;99473.44;;;19.29;100.00
36010;BME280;22076;52.182;5.404;2023-10-19T01:46:06;99475.03;;;19.15;100.00
36010;BME280;22076;52.182;5.404;2023-10-19T01:48:37;99464.38;;;19.23;100.00
36010;BME280;22076;52.182;5.404;2023-10-19T01:51:06;99466.38;;;19.21;100.00
36010;BME280;22076;52.182;5.404;2023-10-19T01:53:36;99460.53;;;19.26;100.00
36010;BME280;22076;52.182;5.404;2023-10-19T01:56:03;99463.94;;;19.11;100.00
36010;BME280;22076;52.182;5.404;2023-10-19T01:58:30;99462.09;;;19.20;100.00
36010;BME280;22076;52.182;5.404;2023-10-19T02:00:56;99462.56;;;19.24;100.00
36010;BME280;22076;52.182;5.404;2023-10-19T02:03:25;99466.28;;;19.14;100.00
36010;BME280;22076;52.182;5.404;2023-10-19T02:05:57;99460.72;;;19.47;100.00
36010;BME280;22076;52.182;5.404;2023-10-19T02:08:24;99458.47;;;19.36;100.00
36010;BME280;22076;52.182;5.404;2023-10-19T02:10:51;99455.94;;;19.43;100.00
36010;BME280;22076;52.182;5.404;2023-10-19T02:13:20;99458.47;;;19.83;100.00
36010;BME280;22076;52.182;5.404;2023-10-19T02:15:47;99456.19;;;19.56;100.00
36010;BME280;22076;52.182;5.404;2023-10-19T02:18:14;99450.63;;;19.66;100.00
36010;BME280;22076;52.182;5.404;2023-10-19T02:20:40;99449.31;;;19.47;100.00
36010;BME280;22076;52.182;5.404;2023-10-19T02:23:07;99450.34;;;19.61;100.00
36010;BME280;22076;52.182;5.404;2023-10-19T02:25:33;99446.66;;;19.47;100.00
36010;BME280;22076;52.182;5.404;2023-10-19T02:28:03;99450.56;;;19.74;100.00
36010;BME280;22076;52.182;5.404;2023-10-19T02:30:30;99441.66;;;19.90;100.00
36010;BME280;22076;52.182;5.404;2023-10-19T02:32:56;99440.56;;;19.85;100.00
36010;BME280;22076;52.182;5.404;2023-10-19T02:35:22;99442.56;;;19.83;100.00
36010;BME280;22076;52.182;5.404;2023-10-19T02:37:49;99451.56;;;19.73;100.00
36010;BME280;22076;52.182;5.404;2023-10-19T02:40:16;99440.75;;;19.98;100.00
36010;BME280;22076;52.182;5.404;2023-10-19T02:42:46;99442.03;;;20.02;100.00
36010;BME280;22076;52.182;5.404;2023-10-19T02:45:14;99442.13;;;20.09;100.00
36010;BME280;22076;52.182;5.404;2023-10-19T02:47:44;99438.56;;;20.32;100.00
36010;BME280;22076;52.182;5.404;2023-10-19T02:50:10;99436.38;;;20.20;100.00
36010;BME280;22076;52.182;5.404;2023-10-19T02:52:39;99442.41;;;20.29;100.00
36010;BME280;22076;52.182;5.404;2023-10-19T02:55:07;99429.91;;;20.59;100.00
36010;BME280;22076;52.182;5.404;2023-10-19T02:57:34;99431.38;;;20.62;100.00
36010;BME280;22076;52.182;5.404;2023-10-19T03:00:00;99432.75;;;20.58;100.00
36010;BME280;22076;52.182;5.404;2023-10-19T03:02:32;99432.06;;;20.19;100.00
36010;BME280;22076;52.182;5.404;2023-10-19T03:04:59;99434.50;;;20.51;100.00
36010;BME280;22076;52.182;5.404;2023-10-19T03:07:26;99429.22;;;20.21;100.00
36010;BME280;22076;52.182;5.404;2023-10-19T03:09:52;99428.03;;;20.08;100.00
36010;BME280;22076;52.182;5.404;2023-10-19T03:12:20;99423.53;;;20.39;100.00
36010;BME280;22076;52.182;5.404;2023-10-19T03:14:45;99421.72;;;20.24;100.00
36010;BME280;22076;52.182;5.404;2023-10-19T03:17:13;99420.09;;;20.08;100.00
36010;BME280;22076;52.182;5.404;2023-10-19T03:19:39;99426.56;;;20.36;100.00
36010;BME280;22076;52.182;5.404;2023-10-19T03:22:08;99422.59;;;20.46;100.00
36010;BME280;22076;52.182;5.404;2023-10-19T03:24:35;99423.38;;;20.25;100.00
36010;BME280;22076;52.182;5.404;2023-10-19T03:27:04;99412.34;;;20.73;100.00
36010;BME280;22076;52.182;5.404;2023-10-19T03:29:38;99423.41;;;20.62;100.00
36010;BME280;22076;52.182;5.404;2023-10-19T03:32:05;99414.56;;;20.40;100.00
36010;BME280;22076;52.182;5.404;2023-10-19T03:34:32;99414.72;;;20.53;100.00
36010;BME280;22076;52.182;5.404;2023-10-19T03:36:58;99413.19;;;20.44;100.00
36010;BME280;22076;52.182;5.404;2023-10-19T03:39:32;99399.91;;;20.59;100.00
36010;BME280;22076;52.182;5.404;2023-10-19T03:42:00;99403.75;;;20.56;100.00
36010;BME280;22076;52.182;5.404;2023-10-19T03:44:27;99407.50;;;20.62;100.00
36010;BME280;22076;52.182;5.404;2023-10-19T03:47:04;99398.06;;;20.59;100.00
36010;BME280;22076;52.182;5.404;2023-10-19T03:49:36;99398.63;;;20.55;100.00
36010;BME280;22076;52.182;5.404;2023-10-19T03:52:04;99396.88;;;20.77;100.00
36010;BME280;22076;52.182;5.404;2023-10-19T03:54:46;99393.69;;;20.88;100.00
36010;BME280;22076;52.182;5.404;2023-10-19T03:57:14;99400.78;;;20.81;100.00
36010;BME280;22076;52.182;5.404;2023-10-19T03:59:45;99393.69;;;20.88;100.00
36010;BME280;22076;52.182;5.404;2023-10-19T04:02:12;99394.56;;;20.74;100.00
36010;BME280;22076;52.182;5.404;2023-10-19T04:04:39;99392.38;;;20.62;100.00
36010;BME280;22076;52.182;5.404;2023-10-19T04:07:08;99384.88;;;20.66;100.00
36010;BME280;22076;52.182;5.404;2023-10-19T04:09:43;99387.63;;;20.73;100.00
36010;BME280;22076;52.182;5.404;2023-10-19T04:12:27;99385.63;;;20.96;100.00
36010;BME280;22076;52.182;5.404;2023-10-19T04:14:57;99381.69;;;20.92;100.00
36010;BME280;22076;52.182;5.404;2023-10-19T04:17:26;99382.84;;;20.83;100.00
36010;BME280;22076;52.182;5.404;2023-10-19T04:19:53;99375.81;;;20.97;100.00
36010;BME280;22076;52.182;5.404;2023-10-19T04:22:20;99375.81;;;20.97;100.00
36010;BME280;22076;52.182;5.404;2023-10-19T04:24:50;99375.00;;;20.96;100.00
36010;BME280;22076;52.182;5.404;2023-10-19T04:27:17;99368.91;;;21.03;100.00
36010;BME280;22076;52.182;5.404;2023-10-19T04:29:48;99362.91;;;21.16;100.00
36010;BME280;22076;52.182;5.404;2023-10-19T04:32:15;99377.78;;;20.88;100.00
36010;BME280;22076;52.182;5.404;2023-10-19T04:34:50;99377.53;;;20.83;100.00
36010;BME280;22076;52.182;5.404;2023-10-19T04:37:16;99387.47;;;20.74;100.00
36010;BME280;22076;52.182;5.404;2023-10-19T04:39:43;99381.31;;;20.74;100.00
36010;BME280;22076;52.182;5.404;2023-10-19T04:42:10;99389.28;;;20.74;100.00
36010;BME280;22076;52.182;5.404;2023-10-19T04:44:37;99384.63;;;20.76;100.00
36010;BME280;22076;52.182;5.404;2023-10-19T04:47:05;99389.91;;;20.76;100.00
36010;BME280;22076;52.182;5.404;2023-10-19T04:49:31;99379.50;;;20.59;100.00
36010;BME280;22076;52.182;5.404;2023-10-19T04:51:58;99386.00;;;20.72;100.00
36010;BME280;22076;52.182;5.404;2023-10-19T04:54:24;99382.47;;;20.86;100.00
36010;BME280;22076;52.182;5.404;2023-10-19T04:56:51;99386.13;;;20.85;100.00
36010;BME280;22076;52.182;5.404;2023-10-19T04:59:20;99386.75;;;20.87;100.00
36010;BME280;22076;52.182;5.404;2023-10-19T05:01:47;99390.44;;;20.86;100.00
36010;BME280;22076;52.182;5.404;2023-10-19T05:04:17;99394.16;;;20.92;100.00
36010;BME280;22076;52.182;5.404;2023-10-19T05:06:44;99397.88;;;20.76;100.00
36010;BME280;22076;52.182;5.404;2023-10-19T05:09:10;99395.88;;;20.63;100.00
36010;BME280;22076;52.182;5.404;2023-10-19T05:11:37;99390.59;;;20.85;100.00
36010;BME280;22076;52.182;5.404;2023-10-19T05:14:05;99402.94;;;20.92;100.00
36010;BME280;22076;52.182;5.404;2023-10-19T05:16:31;99400.97;;;21.01;100.00
36010;BME280;22076;52.182;5.404;2023-10-19T05:18:58;99399.97;;;21.02;100.00
36010;BME280;22076;52.182;5.404;2023-10-19T05:21:26;99401.97;;;21.00;100.00
36010;BME280;22076;52.182;5.404;2023-10-19T05:23:55;99404.97;;;20.90;100.00
36010;BME280;22076;52.182;5.404;2023-10-19T05:26:21;99400.00;;;20.87;100.00
36010;BME280;22076;52.182;5.404;2023-10-19T05:28:48;99401.16;;;21.00;100.00
36010;BME280;22076;52.182;5.404;2023-10-19T05:31:14;99403.88;;;20.85;100.00
36010;BME280;22076;52.182;5.404;2023-10-19T05:33:41;99407.88;;;20.95;100.00
36010;BME280;22076;52.182;5.404;2023-10-19T05:36:08;99407.22;;;20.93;100.00
36010;BME280;22076;52.182;5.404;2023-10-19T05:38:36;99405.94;;;21.04;100.00
36010;BME280;22076;52.182;5.404;2023-10-19T05:41:02;99416.91;;;20.79;100.00
36010;BME280;22076;52.182;5.404;2023-10-19T05:43:29;99420.94;;;20.75;100.00
36010;BME280;22076;52.182;5.404;2023-10-19T05:45:56;99425.97;;;20.70;100.00
36010;BME280;22076;52.182;5.404;2023-10-19T05:48:23;99421.38;;;20.79;100.00
36010;BME280;22076;52.182;5.404;2023-10-19T05:50:49;99422.81;;;20.96;100.00
36010;BME280;22076;52.182;5.404;2023-10-19T05:53:16;99430.38;;;21.00;100.00
36010;BME280;22076;52.182;5.404;2023-10-19T05:55:45;99425.13;;;21.06;100.00
36010;BME280;22076;52.182;5.404;2023-10-19T05:58:11;99426.81;;;20.92;100.00
36010;BME280;22076;52.182;5.404;2023-10-19T06:00:38;99421.44;;;20.86;100.00
36010;BME280;22076;52.182;5.404;2023-10-19T06:03:04;99423.22;;;21.00;100.00
36010;BME280;22076;52.182;5.404;2023-10-19T06:05:31;99430.53;;;20.76;100.00
36010;BME280;22076;52.182;5.404;2023-10-19T06:07:57;99425.63;;;20.95;100.00
36010;BME280;22076;52.182;5.404;2023-10-19T06:10:27;99426.63;;;21.16;100.00
36010;BME280;22076;52.182;5.404;2023-10-19T06:12:55;99424.19;;;21.36;100.00
36010;BME280;22076;52.182;5.404;2023-10-19T06:15:22;99426.78;;;21.07;100.00
36010;BME280;22076;52.182;5.404;2023-10-19T06:17:50;99433.03;;;21.00;100.00
36010;BME280;22076;52.182;5.404;2023-10-19T06:20:18;99425.78;;;21.08;100.00
36010;BME280;22076;52.182;5.404;2023-10-19T06:22:52;99429.25;;;21.31;100.00
36010;BME280;22076;52.182;5.404;2023-10-19T06:25:20;99427.97;;;21.26;100.00
36010;BME280;22076;52.182;5.404;2023-10-19T06:27:48;99428.34;;;21.23;100.00
36010;BME280;22076;52.182;5.404;2023-10-19T06:30:17;99424.75;;;21.31;100.00
36010;BME280;22076;52.182;5.404;2023-10-19T06:32:48;99424.78;;;21.38;100.00
36010;BME280;22076;52.182;5.404;2023-10-19T06:35:16;99431.34;;;21.13;100.00
36010;BME280;22076;52.182;5.404;2023-10-19T06:37:42;99432.47;;;21.04;100.00
36010;BME280;22076;52.182;5.404;2023-10-19T06:40:10;99434.19;;;21.12;100.00
36010;BME280;22076;52.182;5.404;2023-10-19T06:42:38;99437.94;;;21.03;100.00
36010;BME280;22076;52.182;5.404;2023-10-19T06:45:06;99436.66;;;21.13;100.00
36010;BME280;22076;52.182;5.404;2023-10-19T06:47:34;99440.81;;;21.23;100.00
36010;BME280;22076;52.182;5.404;2023-10-19T06:50:04;99441.63;;;21.23;100.00
36010;BME280;22076;52.182;5.404;2023-10-19T06:52:32;99438.84;;;21.10;100.00
36010;BME280;22076;52.182;5.404;2023-10-19T06:54:59;99454.13;;;21.08;100.00
36010;BME280;22076;52.182;5.404;2023-10-19T06:57:25;99455.19;;;21.07;100.00
36010;BME280;22076;52.182;5.404;2023-10-19T06:59:52;99459.34;;;21.16;100.00
36010;BME280;22076;52.182;5.404;2023-10-19T07:02:19;99454.34;;;21.06;100.00
36010;BME280;22076;52.182;5.404;2023-10-19T07:04:47;99465.06;;;21.20;100.00
36010;BME280;22076;52.182;5.404;2023-10-19T07:07:14;99468.31;;;21.15;100.00
36010;BME280;22076;52.182;5.404;2023-10-19T07:09:41;99468.00;;;21.03;100.00
36010;BME280;22076;52.182;5.404;2023-10-19T07:12:07;99470.06;;;21.08;100.00
36010;BME280;22076;52.182;5.404;2023-10-19T07:14:34;99469.56;;;20.98;100.00
36010;BME280;22076;52.182;5.404;2023-10-19T07:17:00;99470.25;;;21.06;100.00
36010;BME280;22076;52.182;5.404;2023-10-19T07:19:27;99480.94;;;20.91;100.00
36010;BME280;22076;52.182;5.404;2023-10-19T07:21:55;99468.69;;;21.34;100.00
36010;BME280;22076;52.182;5.404;2023-10-19T07:24:24;99467.94;;;21.18;100.00
36010;BME280;22076;52.182;5.404;2023-10-19T07:26:50;99469.94;;;21.38;100.00
36010;BME280;22076;52.182;5.404;2023-10-19T07:29:29;99479.97;;;21.36;100.00
36010;BME280;22076;52.182;5.404;2023-10-19T07:31:56;99478.75;;;21.38;100.00
36010;BME280;22076;52.182;5.404;2023-10-19T07:34:23;99479.50;;;21.32;100.00
36010;BME280;22076;52.182;5.404;2023-10-19T07:36:55;99475.16;;;21.46;100.00
36010;BME280;22076;52.182;5.404;2023-10-19T07:39:24;99475.75;;;21.48;100.00
36010;BME280;22076;52.182;5.404;2023-10-19T07:41:52;99477.53;;;21.19;100.00
36010;BME280;22076;52.182;5.404;2023-10-19T07:44:18;99479.06;;;21.28;100.00
36010;BME280;22076;52.182;5.404;2023-10-19T07:46:45;99478.44;;;21.26;100.00
36010;BME280;22076;52.182;5.404;2023-10-19T07:49:11;99482.47;;;21.44;100.00
36010;BME280;22076;52.182;5.404;2023-10-19T07:51:41;99483.16;;;21.31;100.00
36010;BME280;22076;52.182;5.404;2023-10-19T07:54:12;99479.50;;;21.54;100.00
36010;BME280;22076;52.182;5.404;2023-10-19T07:56:39;99481.72;;;21.50;100.00
36010;BME280;22076;52.182;5.404;2023-10-19T07:59:05;99478.88;;;21.52;100.00
36010;BME280;22076;52.182;5.404;2023-10-19T08:01:33;99487.81;;;21.66;100.00
36010;BME280;22076;52.182;5.404;2023-10-19T08:03:59;99481.72;;;21.72;100.00
36010;BME280;22076;52.182;5.404;2023-10-19T08:06:26;99485.66;;;21.76;100.00
36010;BME280;22076;52.182;5.404;2023-10-19T08:08:53;99485.50;;;21.84;100.00
36010;BME280;22076;52.182;5.404;2023-10-19T08:11:21;99487.00;;;21.93;100.00
36010;BME280;22076;52.182;5.404;2023-10-19T08:13:48;99482.03;;;21.84;100.00
36010;BME280;22076;52.182;5.404;2023-10-19T08:16:15;99478.41;;;21.91;100.00
36010;BME280;22076;52.182;5.404;2023-10-19T08:18:41;99476.00;;;21.97;100.00
36010;BME280;22076;52.182;5.404;2023-10-19T08:21:08;99482.44;;;22.16;100.00
36010;BME280;22076;52.182;5.404;2023-10-19T08:23:36;99480.28;;;22.33;100.00
36010;BME280;22076;52.182;5.404;2023-10-19T08:26:03;99487.00;;;22.28;100.00
36010;BME280;22076;52.182;5.404;2023-10-19T08:28:32;99476.75;;;22.54;100.00
36010;BME280;22076;52.182;5.404;2023-10-19T08:30:58;99479.56;;;22.46;100.00
36010;BME280;22076;52.182;5.404;2023-10-19T08:33:27;99481.88;;;22.55;100.00
36010;BME280;22076;52.182;5.404;2023-10-19T08:35:55;99488.25;;;22.33;100.00
36010;BME280;22076;52.182;5.404;2023-10-19T08:38:23;99485.28;;;22.42;100.00
36010;BME280;22076;52.182;5.404;2023-10-19T08:40:50;99476.53;;;22.20;100.00
36010;BME280;22076;52.182;5.404;2023-10-19T08:43:16;99474.25;;;22.17;100.00
36010;BME280;22076;52.182;5.404;2023-10-19T08:45:45;99476.59;;;22.34;100.00
36010;BME280;22076;52.182;5.404;2023-10-19T08:48:12;99474.84;;;22.13;100.00
36010;BME280;22076;52.182;5.404;2023-10-19T08:50:39;99471.66;;;22.24;100.00
36010;BME280;22076;52.182;5.404;2023-10-19T08:53:07;99467.50;;;22.50;100.00
36010;BME280;22076;52.182;5.404;2023-10-19T08:55:35;99475.88;;;22.47;100.00
36010;BME280;22076;52.182;5.404;2023-10-19T08:58:02;99470.97;;;22.43;100.00
36010;BME280;22076;52.182;5.404;2023-10-19T09:00:42;99481.91;;;22.69;100.00
36010;BME280;22076;52.182;5.404;2023-10-19T09:03:13;99471.91;;;22.71;100.00
36010;BME280;22076;52.182;5.404;2023-10-19T09:05:42;99468.94;;;22.52;100.00
36010;BME280;22076;52.182;5.404;2023-10-19T09:08:13;99463.72;;;22.79;100.00
36010;BME280;22076;52.182;5.404;2023-10-19T09:10:43;99464.13;;;22.76;100.00
36010;BME280;22076;52.182;5.404;2023-10-19T09:13:11;99464.94;;;22.76;100.00
36010;BME280;22076;52.182;5.404;2023-10-19T09:15:39;99463.94;;;22.77;100.00
36010;BME280;22076;52.182;5.404;2023-10-19T09:20:42;99465.56;;;22.79;100.00
36010;BME280;22076;52.182;5.404;2023-10-19T09:23:18;99459.44;;;22.85;100.00
36010;BME280;22076;52.182;5.404;2023-10-19T09:25:47;99455.34;;;22.89;100.00
36010;BME280;22076;52.182;5.404;2023-10-19T09:28:13;99452.88;;;22.87;100.00
36010;BME280;22076;52.182;5.404;2023-10-19T09:30:40;99448.00;;;23.04;100.00
36010;BME280;22076;52.182;5.404;2023-10-19T09:33:08;99454.81;;;23.14;100.00
36010;BME280;22076;52.182;5.404;2023-10-19T09:35:38;99450.94;;;23.23;100.00
36010;BME280;22076;52.182;5.404;2023-10-19T09:38:05;99464.28;;;23.16;100.00
36010;BME280;22076;52.182;5.404;2023-10-19T09:40:31;99460.78;;;23.22;100.00
36010;BME280;22076;52.182;5.404;2023-10-19T09:43:03;99459.75;;;23.37;100.00
36010;BME280;22076;52.182;5.404;2023-10-19T09:45:32;99452.19;;;23.20;100.00
36010;BME280;22076;52.182;5.404;2023-10-19T09:48:06;99455.44;;;23.22;100.00
36010;BME280;22076;52.182;5.404;2023-10-19T09:50:34;99450.22;;;22.94;100.00
36010;BME280;22076;52.182;5.404;2023-10-19T09:53:03;99452.38;;;23.25;100.00
36010;BME280;22076;52.182;5.404;2023-10-19T09:55:33;99452.38;;;23.32;100.00
36010;BME280;22076;52.182;5.404;2023-10-19T09:58:04;99450.31;;;23.27;100.00
36010;BME280;22076;52.182;5.404;2023-10-19T10:00:33;99441.09;;;23.37;100.00
36010;BME280;22076;52.182;5.404;2023-10-19T10:03:00;99440.28;;;23.23;100.00
36010;BME280;22076;52.182;5.404;2023-10-19T10:05:46;99420.19;;;23.67;100.00
36010;BME280;22076;52.182;5.404;2023-10-19T10:08:35;99427.38;;;23.53;100.00
36010;BME280;22076;52.182;5.404;2023-10-19T10:11:19;99421.63;;;23.70;100.00
36010;BME280;22076;52.182;5.404;2023-10-19T10:13:47;99424.50;;;23.68;100.00
36010;BME280;22076;52.182;5.404;2023-10-19T10:16:17;99423.25;;;23.84;100.00
36010;BME280;22076;52.182;5.404;2023-10-19T10:18:46;99430.63;;;23.82;100.00
36010;BME280;22076;52.182;5.404;2023-10-19T10:21:15;99430.22;;;23.72;100.00
36010;BME280;22076;52.182;5.404;2023-10-19T10:23:44;99443.59;;;23.52;100.00
36010;BME280;22076;52.182;5.404;2023-10-19T10:26:13;99434.94;;;23.56;100.00
36010;BME280;22076;52.182;5.404;2023-10-19T10:28:41;99448.28;;;23.36;100.00
36010;BME280;22076;52.182;5.404;2023-10-19T10:31:13;99447.28;;;23.44;100.00
36010;BME280;22076;52.182;5.404;2023-10-19T10:33:42;99439.28;;;23.71;100.00
36010;BME280;22076;52.182;5.404;2023-10-19T10:36:10;99432.91;;;23.58;100.00
36010;BME280;22076;52.182;5.404;2023-10-19T10:38:37;99437.41;;;23.51;100.00
36010;BME280;22076;52.182;5.404;2023-10-19T10:41:06;99422.66;;;23.69;100.00
36010;BME280;22076;52.182;5.404;2023-10-19T10:43:47;99422.22;;;23.79;100.00
36010;BME280;22076;52.182;5.404;2023-10-19T10:46:14;99419.59;;;23.58;100.00
36010;BME280;22076;52.182;5.404;2023-10-19T10:48:42;99413.78;;;23.88;100.00
36010;BME280;22076;52.182;5.404;2023-10-19T10:51:15;99409.66;;;24.06;100.00
36010;BME280;22076;52.182;5.404;2023-10-19T10:53:41;99407.84;;;23.86;100.00
36010;BME280;22076;52.182;5.404;2023-10-19T10:56:09;99411.34;;;24.00;100.00
36010;BME280;22076;52.182;5.404;2023-10-19T10:58:37;99404.59;;;23.84;100.00
36010;BME280;22076;52.182;5.404;2023-10-19T11:01:03;99402.75;;;23.78;100.00
36010;BME280;22076;52.182;5.404;2023-10-19T11:03:30;99400.72;;;23.73;100.00
36010;BME280;22076;52.182;5.404;2023-10-19T11:06:03;99384.41;;;24.08;100.00
36010;BME280;22076;52.182;5.404;2023-10-19T11:08:29;99381.19;;;23.86;100.00
36010;BME280;22076;52.182;5.404;2023-10-19T11:11:02;99381.19;;;24.00;100.00
36010;BME280;22076;52.182;5.404;2023-10-19T11:13:31;99381.94;;;24.14;100.00
36010;BME280;22076;52.182;5.404;2023-10-19T11:16:03;99378.91;;;24.10;100.00
36010;BME280;22076;52.182;5.404;2023-10-19T11:18:32;99375.88;;;24.38;100.00
36010;BME280;22076;52.182;5.404;2023-10-19T11:21:01;99372.06;;;24.21;100.00
36010;BME280;22076;52.182;5.404;2023-10-19T11:23:40;99371.69;;;24.56;100.00
36010;BME280;22076;52.182;5.404;2023-10-19T11:26:08;99378.94;;;24.42;100.00
36010;BME280;22076;52.182;5.404;2023-10-19T11:28:37;99380.38;;;24.45;100.00
36010;BME280;22076;52.182;5.404;2023-10-19T11:31:16;99380.16;;;24.53;100.00
36010;BME280;22076;52.182;5.404;2023-10-19T11:33:44;99374.72;;;24.28;100.00
36010;BME280;22076;52.182;5.404;2023-10-19T11:36:14;99376.41;;;24.08;100.00
36010;BME280;22076;52.182;5.404;2023-10-19T11:38:41;99364.25;;;24.26;100.00
36010;BME280;22076;52.182;5.404;2023-10-19T11:41:09;99377.63;;;24.19;100.00
36010;BME280;22076;52.182;5.404;2023-10-19T11:43:38;99369.47;;;24.46;100.00
36010;BME280;22076;52.182;5.404;2023-10-19T11:46:05;99379.09;;;24.15;100.00
36010;BME280;22076;52.182;5.404;2023-10-19T11:48:32;99365.66;;;24.35;100.00
36010;BME280;22076;52.182;5.404;2023-10-19T11:51:01;99365.59;;;24.42;100.00
36010;BME280;22076;52.182;5.404;2023-10-19T11:53:30;99357.44;;;25.01;100.00
36010;BME280;22076;52.182;5.404;2023-10-19T11:55:59;99363.06;;;24.93;100.00
36010;BME280;22076;52.182;5.404;2023-10-19T11:58:26;99360.50;;;24.79;100.00
36010;BME280;22076;52.182;5.404;2023-10-19T12:00:54;99355.72;;;24.88;100.00
36010;BME280;22076;52.182;5.404;2023-10-19T12:03:20;99350.03;;;24.78;100.00
36010;BME280;22076;52.182;5.404;2023-10-19T12:05:47;99356.81;;;24.73;100.00
36010;BME280;22076;52.182;5.404;2023-10-19T12:08:13;99343.34;;;24.94;100.00
36010;BME280;22076;52.182;5.404;2023-10-19T12:10:40;99342.91;;;24.97;100.00
36010;BME280;22076;52.182;5.404;2023-10-19T12:13:07;99336.31;;;25.24;100.00
36010;BME280;22076;52.182;5.404;2023-10-19T12:15:34;99339.66;;;24.95;100.00
36010;BME280;22076;52.182;5.404;2023-10-19T12:18:02;99336.19;;;24.87;100.00
36010;BME280;22076;52.182;5.404;2023-10-19T12:20:29;99329.16;;;24.68;100.00
36010;BME280;22076;52.182;5.404;2023-10-19T12:22:57;99342.03;;;25.03;100.00
36010;BME280;22076;52.182;5.404;2023-10-19T12:25:24;99340.16;;;25.10;100.00
36010;BME280;22076;52.182;5.404;2023-10-19T12:27:55;99345.31;;;25.30;100.00
36010;BME280;22076;52.182;5.404;2023-10-19T12:30:23;99339.38;;;24.78;100.00
36010;BME280;22076;52.182;5.404;2023-10-19T12:32:51;99332.78;;;24.73;100.00
36010;BME280;22076;52.182;5.404;2023-10-19T12:35:20;99335.00;;;24.83;100.00
36010;BME280;22076;52.182;5.404;2023-10-19T12:37:49;99316.78;;;24.73;100.00
36010;BME280;22076;52.182;5.404;2023-10-19T12:40:17;99320.00;;;24.50;100.00
36010;BME280;22076;52.182;5.404;2023-10-19T12:42:54;99310.75;;;24.53;100.00
36010;BME280;22076;52.182;5.404;2023-10-19T12:45:23;99314.63;;;24.57;100.00
36010;BME280;22076;52.182;5.404;2023-10-19T12:47:50;99324.31;;;24.45;100.00
36010;BME280;22076;52.182;5.404;2023-10-19T12:50:19;99319.25;;;24.75;100.00
36010;BME280;22076;52.182;5.404;2023-10-19T12:52:48;99315.28;;;24.84;100.00
36010;BME280;22076;52.182;5.404;2023-10-19T12:55:15;99320.41;;;24.86;100.00
36010;BME280;22076;52.182;5.404;2023-10-19T12:57:42;99302.72;;;24.85;100.00
36010;BME280;22076;52.182;5.404;2023-10-19T13:00:09;99316.75;;;25.05;100.00